Catharpin, Virginia
Current Conditions -  °F | °C
As of 2:52 PM on Monday 24 Nov 2014 (Local Time) from KIAD Reporting Station
Scattered Clouds Scattered Clouds  
Wind Chill: 70°   Ceiling: Unl
Heat Index: 70°   Visibility: 10mi
Dew Point: 51°   Wind: 22mph
Humidity: 51%   Direction: 190°S
Pressure: 29.62"   Gusts: 30mph
Location:  38.86°N, 77.57°W
Report Text: KIAD 241952Z 19019G26KT 10SM SCT040 21/11 A2962 RMK AO2 PK WND 21027/1935 SLP028 T02110106
Loading
Personal Weather Stations






























Interactive Weather Map New forecast layout! Learn more

10-Day Weather Forecast

Advertisements
Track Severe Weather on mobile